This is the latest recevied weather packets stored in our database for station/object DL8TF-13. If no packets are shown the sender has not sent any weather packets the latest 10 day(s).
| Time | Temp. | Humidity | Pressure | Rain* | Wind** | Luminosity | Snow |
|---|---|---|---|---|---|---|---|
| 1778271881 | 16.11° C | 56% | 985 hPa | - | - | - | - |
| 1778271281 | 16.11° C | 58% | 985 hPa | - | - | - | - |
| 1778270681 | 16.67° C | 56% | 985 hPa | - | - | - | - |
| 1778270081 | 16.67° C | 53% | 985 hPa | - | - | - | - |
| 1778269480 | 17.22° C | 51% | 985 hPa | - | - | - | - |
| 1778268880 | 17.22° C | 51% | 985 hPa | - | - | - | - |
| 1778268280 | 17.78° C | 49% | 985 hPa | - | - | - | - |
| 1778267680 | 17.78° C | 49% | 985 hPa | - | - | - | - |
| 1778267080 | 17.78° C | 48% | 985 hPa | - | - | - | - |
| 1778266480 | 18.33° C | 45% | 984 hPa | - | - | - | - |
| 1778265880 | 18.89° C | 45% | 984 hPa | - | - | - | - |
| 1778265280 | 19.44° C | 43% | 984 hPa | - | - | - | - |
| 1778264680 | 20° C | 41% | 984 hPa | - | - | - | - |
| 1778264080 | 20° C | 41% | 984 hPa | - | - | - | - |
| 1778263480 | 20.56° C | 41% | 984 hPa | - | - | - | - |
| 1778262880 | 21.11° C | 40% | 984 hPa | - | - | - | - |
| 1778262280 | 21.67° C | 38% | 984 hPa | - | - | - | - |
| 1778261680 | 22.22° C | 37% | 984 hPa | - | - | - | - |
| 1778261080 | 22.22° C | 37% | 983 hPa | - | - | - | - |
| 1778260480 | 21.67° C | 37% | 983 hPa | - | - | - | - |
| 1778259879 | 22.22° C | 37% | 983 hPa | - | - | - | - |
| 1778259279 | 22.22° C | 38% | 983 hPa | - | - | - | - |
| 1778258679 | 23.33° C | 35% | 983 hPa | - | - | - | - |
| 1778258079 | 23.33° C | 35% | 983 hPa | - | - | - | - |
| 1778257479 | 23.89° C | 35% | 983 hPa | - | - | - | - |
* Rain since midnight (hover to see other rain measurements)
** Current wind speed in m/s (hover to see current wind gust speed)